Labin, Croatia
Current Conditions -  °F | °C
As of 10:00 AM on Saturday 20 Dec 2014 (Local Time) from LDPL Reporting Station
Haze Haze  
Wind Chill: 50°   Ceiling: 4000
Heat Index: 50°   Visibility: 2.5mi
Dew Point: 48°   Wind: 2mph
Humidity: 94%   Direction: NA
Pressure: 30.21"   Gusts: NA
Location:  45.1°N, 14.12°E
Report Text: LDPL 200800Z VRB02KT 4000 BR SCT006 OVC040 10/09 Q1023 TEMPO BKN006
Loading
Personal Weather Stations






























Interactive Weather Map New forecast layout! Learn more

10-Day Weather Forecast

Advertisements
Track Severe Weather on mobile